createdAt,value
2019-04-16T00:02:43.114Z,17.67
2019-04-16T00:05:20.407Z,17.90
2019-04-16T00:08:26.677Z,13.63
2019-04-16T00:10:54.227Z,13.60
2019-04-16T00:13:39.673Z,14.57
2019-04-16T00:16:17.294Z,14.80
2019-04-16T00:18:57.323Z,14.63
2019-04-16T00:21:41.167Z,15.27
2019-04-16T00:24:24.354Z,13.70
2019-04-16T00:27:00.100Z,14.80
2019-04-16T00:29:32.984Z,17.70
2019-04-16T00:32:09.183Z,13.50
2019-04-16T00:34:44.743Z,14.13
2019-04-16T00:37:20.520Z,19.67
2019-04-16T00:39:55.511Z,18.23
2019-04-16T00:42:23.580Z,13.00
2019-04-16T00:44:54.102Z,19.53
2019-04-16T00:47:24.734Z,18.70
2019-04-16T00:49:58.815Z,15.07
2019-04-16T00:52:29.469Z,15.83
2019-04-16T00:55:00.020Z,17.07
2019-04-16T00:57:33.923Z,14.53
2019-04-16T01:00:08.313Z,14.03
2019-04-16T01:02:41.643Z,18.40
2019-04-16T01:05:12.339Z,13.53
2019-04-16T01:07:43.293Z,12.70
2019-04-16T01:10:14.973Z,13.03
2019-04-16T01:12:45.400Z,15.67
2019-04-16T01:15:15.843Z,14.57
2019-04-16T01:17:48.756Z,18.33
2019-04-16T01:20:22.409Z,15.87
2019-04-16T01:22:55.201Z,13.33
2019-04-16T01:25:27.039Z,13.03
2019-04-16T01:28:01.269Z,13.70
2019-04-16T01:30:49.568Z,12.83
2019-04-16T01:33:34.176Z,13.03
2019-04-16T01:36:23.783Z,13.13
2019-04-16T01:39:14.772Z,13.90
2019-04-16T01:41:33.741Z,13.97
2019-04-16T01:44:07.331Z,15.10
2019-04-16T01:46:38.329Z,21.10
2019-04-16T01:49:10.274Z,15.60
2019-04-16T01:51:41.162Z,15.60
2019-04-16T01:54:11.867Z,13.97
2019-04-16T01:56:42.464Z,14.23
2019-04-16T01:59:13.894Z,19.27
2019-04-16T02:01:46.616Z,16.60
2019-04-16T02:04:19.589Z,12.93
2019-04-16T02:06:49.361Z,16.37
2019-04-16T02:09:23.142Z,16.13
2019-04-16T02:11:53.801Z,13.97
2019-04-16T02:14:25.421Z,11.93
2019-04-16T02:16:56.705Z,14.70
2019-04-16T02:19:27.509Z,16.03
2019-04-16T02:21:58.037Z,14.93
2019-04-16T02:24:30.102Z,16.90
2019-04-16T02:27:04.320Z,14.90
2019-04-16T02:29:34.813Z,13.83
2019-04-16T02:32:05.577Z,14.17
2019-04-16T02:34:36.148Z,13.00
2019-04-16T02:37:06.752Z,14.80
2019-04-16T02:39:49.567Z,20.13
2019-04-16T02:42:14.014Z,12.90
2019-04-16T02:44:50.070Z,19.07
2019-04-16T02:47:18.785Z,18.93
2019-04-16T02:49:56.424Z,14.63
2019-04-16T02:52:41.692Z,17.33
2019-04-16T02:55:44.246Z,20.20
2019-04-16T02:58:22.854Z,15.30
2019-04-16T03:01:21.854Z,15.97
2019-04-16T03:04:17.583Z,18.07
2019-04-16T03:06:48.528Z,15.63
2019-04-16T03:09:19.060Z,15.00
2019-04-16T03:11:51.836Z,16.93
2019-04-16T03:14:22.880Z,14.50
2019-04-16T03:17:18.460Z,12.13
2019-04-16T03:19:51.280Z,20.93
2019-04-16T03:22:22.074Z,15.30
2019-04-16T03:24:55.525Z,14.23
2019-04-16T03:27:26.115Z,14.53
2019-04-16T03:30:03.008Z,21.23
2019-04-16T03:32:36.258Z,14.67
2019-04-16T03:35:09.987Z,13.23
2019-04-16T03:37:46.949Z,13.70
2019-04-16T03:40:28.335Z,15.17
2019-04-16T03:43:03.724Z,17.20
2019-04-16T03:45:37.600Z,14.97
2019-04-16T03:48:12.132Z,17.50
2019-04-16T03:50:45.546Z,16.27
2019-04-16T03:53:22.199Z,14.63
2019-04-16T03:55:59.262Z,15.70
2019-04-16T03:58:31.362Z,14.40
2019-04-16T04:01:02.434Z,14.40
2019-04-16T04:03:32.983Z,15.73
2019-04-16T04:06:06.180Z,15.10
2019-04-16T04:08:35.822Z,14.37
2019-04-16T04:11:10.548Z,15.40
2019-04-16T04:13:42.456Z,18.80
2019-04-16T04:16:13.345Z,21.37
2019-04-16T04:18:44.218Z,14.93
2019-04-16T04:21:14.652Z,12.80
2019-04-16T04:23:47.712Z,21.53
2019-04-16T04:26:18.304Z,15.13
2019-04-16T04:28:51.529Z,16.30
2019-04-16T04:31:21.313Z,20.83
2019-04-16T04:33:55.101Z,21.53
2019-04-16T04:36:28.422Z,17.17
2019-04-16T04:39:09.930Z,21.37
2019-04-16T04:41:40.002Z,17.40
2019-04-16T04:44:12.335Z,19.77
2019-04-16T04:46:47.474Z,21.93
2019-04-16T04:49:19.146Z,19.43
2019-04-16T04:51:49.660Z,20.30
2019-04-16T04:54:22.356Z,23.50
2019-04-16T04:56:52.745Z,20.60
2019-04-16T04:59:23.465Z,22.60
2019-04-16T05:01:57.728Z,18.67
2019-04-16T05:04:54.789Z,23.07
2019-04-16T05:07:25.757Z,20.03
2019-04-16T05:09:57.682Z,22.57
2019-04-16T05:12:29.350Z,21.93
2019-04-16T05:15:00.056Z,20.73
2019-04-16T05:17:37.930Z,21.23
2019-04-16T05:20:06.696Z,23.53
2019-04-16T05:22:38.980Z,19.23
2019-04-16T05:25:16.562Z,19.27
2019-04-16T05:27:47.355Z,23.00
2019-04-16T05:30:20.870Z,22.57
2019-04-16T05:32:51.455Z,18.73
2019-04-16T05:35:21.815Z,21.20
2019-04-16T05:37:52.330Z,20.03
2019-04-16T05:40:23.798Z,24.30
2019-04-16T05:42:55.865Z,15.93
2019-04-16T05:45:26.757Z,18.33
2019-04-16T05:47:58.635Z,19.83
2019-04-16T05:50:29.964Z,21.33
2019-04-16T05:53:00.428Z,18.67
2019-04-16T05:55:42.799Z,22.30
2019-04-16T05:58:13.190Z,17.83
2019-04-16T06:00:52.668Z,16.40
2019-04-16T06:03:23.126Z,14.13
2019-04-16T06:05:53.452Z,20.10
2019-04-16T06:08:24.000Z,20.17
2019-04-16T06:10:57.431Z,21.40
2019-04-16T06:13:41.310Z,14.57
2019-04-16T06:16:16.690Z,18.00
2019-04-16T06:19:08.546Z,15.63
2019-04-16T06:21:56.695Z,13.93
2019-04-16T06:24:36.072Z,18.13
2019-04-16T06:27:28.521Z,15.97
2019-04-16T06:30:19.672Z,13.57
2019-04-16T06:33:03.393Z,14.93
2019-04-16T06:35:51.480Z,16.30
2019-04-16T06:38:35.453Z,15.60
2019-04-16T06:41:41.148Z,15.20
2019-04-16T06:44:03.856Z,16.17
2019-04-16T06:46:55.963Z,19.43
2019-04-16T06:50:00.691Z,16.93
2019-04-16T06:52:41.172Z,15.13
2019-04-16T06:55:21.085Z,17.47
2019-04-16T06:58:16.652Z,16.67
2019-04-16T07:00:55.940Z,18.70
2019-04-16T07:03:44.053Z,14.80
2019-04-16T07:06:36.350Z,16.47
2019-04-16T07:09:40.831Z,13.43
2019-04-16T07:12:06.086Z,15.07
2019-04-16T07:14:36.585Z,12.30
2019-04-16T07:17:07.717Z,13.87
2019-04-16T07:19:39.445Z,14.27
2019-04-16T07:22:11.444Z,24.17
2019-04-16T07:24:42.164Z,13.23
2019-04-16T07:27:12.691Z,21.03
2019-04-16T07:29:50.122Z,16.17
2019-04-16T07:32:28.602Z,12.60
2019-04-16T07:35:15.968Z,13.70
2019-04-16T07:38:11.682Z,15.07
2019-04-16T07:41:04.257Z,12.63
2019-04-16T07:43:52.191Z,12.87
2019-04-16T07:47:01.288Z,11.50
2019-04-16T07:49:59.848Z,17.23
2019-04-16T07:52:58.868Z,14.53
2019-04-16T07:55:44.500Z,13.13
2019-04-16T07:58:14.803Z,12.50
2019-04-16T08:00:45.214Z,11.30
2019-04-16T08:03:15.517Z,11.83
2019-04-16T08:05:45.833Z,14.77
2019-04-16T08:08:16.141Z,10.67
2019-04-16T08:10:46.423Z,11.87
2019-04-16T08:13:18.857Z,13.13
2019-04-16T08:15:49.085Z,16.97
2019-04-16T08:18:19.420Z,14.13
2019-04-16T08:21:00.615Z,12.30
2019-04-16T08:23:51.731Z,14.20
2019-04-16T08:26:18.868Z,14.40
2019-04-16T08:28:49.267Z,10.83
2019-04-16T08:31:24.468Z,16.33
2019-04-16T08:33:57.057Z,13.57
2019-04-16T08:39:07.686Z,14.27
2019-04-16T08:41:38.999Z,13.20
2019-04-16T08:44:10.612Z,12.27
2019-04-16T08:46:42.354Z,18.47
2019-04-16T08:49:14.818Z,16.13
2019-04-16T08:51:44.818Z,12.20
2019-04-16T08:54:18.143Z,14.80
2019-04-16T08:56:48.096Z,14.70
2019-04-16T08:59:18.379Z,14.83
2019-04-16T09:01:51.454Z,11.17
2019-04-16T09:04:22.433Z,12.43
2019-04-16T09:06:52.734Z,20.40
2019-04-16T09:09:33.377Z,12.43
2019-04-16T09:12:09.251Z,10.47
2019-04-16T09:14:46.147Z,14.73
2019-04-16T09:17:28.951Z,13.23
2019-04-16T09:20:22.907Z,12.33
2019-04-16T09:22:53.638Z,14.33
2019-04-16T09:25:45.674Z,11.90
2019-04-16T09:28:39.360Z,12.63
2019-04-16T09:31:43.941Z,13.17
2019-04-16T09:34:44.939Z,12.90
2019-04-16T09:37:25.520Z,13.68
2019-04-16T09:40:19.912Z,12.47
2019-04-16T09:42:50.253Z,11.47
2019-04-16T09:45:20.682Z,13.10
2019-04-16T09:47:51.144Z,16.90
2019-04-16T09:50:21.655Z,12.15
2019-04-16T09:52:52.515Z,15.87
2019-04-16T09:55:24.058Z,12.83
2019-04-16T09:57:55.439Z,12.27
2019-04-16T10:00:30.793Z,11.37
2019-04-16T10:03:09.887Z,13.17
2019-04-16T10:05:40.441Z,17.10
2019-04-16T10:08:14.007Z,13.37
2019-04-16T10:10:44.416Z,13.90
2019-04-16T10:13:29.642Z,14.17
2019-04-16T10:15:48.625Z,14.30
2019-04-16T10:18:19.471Z,15.53
2019-04-16T10:20:50.975Z,13.63
2019-04-16T10:23:31.612Z,13.97
2019-04-16T10:26:02.012Z,14.37
2019-04-16T10:28:37.715Z,11.90
2019-04-16T10:31:09.688Z,18.23
2019-04-16T10:33:40.912Z,14.00
2019-04-16T10:36:11.305Z,12.20
2019-04-16T10:39:01.516Z,12.30
2019-04-16T10:41:49.324Z,13.40
2019-04-16T10:44:27.738Z,14.77
2019-04-16T10:47:16.628Z,15.60
2019-04-16T10:49:53.886Z,12.00
2019-04-16T10:52:35.197Z,14.73
2019-04-16T10:55:18.762Z,12.57
2019-04-16T10:58:25.342Z,19.07
2019-04-16T11:01:16.273Z,15.33
2019-04-16T11:03:57.913Z,14.23
2019-04-16T11:06:36.155Z,12.10
2019-04-16T11:09:08.370Z,17.52
2019-04-16T11:11:39.155Z,15.63
2019-04-16T11:14:09.602Z,18.07
2019-04-16T11:16:42.786Z,12.70
2019-04-16T11:19:13.656Z,14.77
2019-04-16T11:21:44.382Z,16.17
2019-04-16T11:24:15.894Z,15.07
2019-04-16T11:26:46.933Z,15.37
2019-04-16T11:29:17.375Z,20.03
2019-04-16T11:31:47.827Z,16.07
2019-04-16T11:34:18.245Z,18.50
2019-04-16T11:36:48.719Z,14.35
2019-04-16T11:39:19.135Z,15.23
2019-04-16T11:41:49.615Z,14.10
2019-04-16T11:44:20.035Z,15.63
2019-04-16T11:46:51.988Z,18.10
2019-04-16T11:49:22.450Z,15.37
2019-04-16T11:51:52.831Z,13.97
2019-04-16T11:54:23.404Z,15.50
2019-04-16T11:56:55.567Z,20.43
2019-04-16T11:59:25.928Z,15.17
2019-04-16T12:02:27.597Z,18.00
2019-04-16T12:05:06.111Z,17.93
2019-04-16T12:07:56.359Z,15.27
2019-04-16T12:10:49.219Z,16.73
2019-04-16T12:13:50.566Z,16.13
2019-04-16T12:16:31.599Z,16.63
2019-04-16T12:19:27.105Z,18.90
2019-04-16T12:22:02.739Z,17.07
2019-04-16T12:24:45.607Z,19.10
2019-04-16T12:27:35.055Z,19.00
2019-04-16T12:30:34.175Z,15.90
2019-04-16T12:33:15.062Z,19.13
2019-04-16T12:36:04.739Z,17.57
2019-04-16T12:38:58.464Z,19.23
2019-04-16T12:42:00.037Z,17.73
2019-04-16T12:44:52.119Z,25.50
2019-04-16T12:47:41.451Z,18.10
2019-04-16T12:50:28.824Z,20.37
2019-04-16T12:53:09.547Z,17.27
2019-04-16T12:56:08.886Z,21.68
2019-04-16T12:59:04.214Z,19.90
2019-04-16T13:01:52.107Z,17.92
2019-04-16T13:04:30.013Z,20.43
2019-04-16T13:07:09.288Z,22.83
2019-04-16T13:10:29.555Z,18.63
2019-04-16T13:13:15.266Z,20.32
2019-04-16T13:16:06.422Z,24.97
2019-04-16T13:19:07.918Z,20.92
2019-04-16T13:21:44.764Z,20.25
2019-04-16T13:24:21.999Z,19.50
2019-04-16T13:27:08.947Z,22.32
2019-04-16T13:29:42.484Z,26.65
2019-04-16T13:32:14.982Z,18.37
2019-04-16T13:34:46.589Z,21.20
2019-04-16T13:48:31.819Z,23.87
2019-04-16T14:28:07.562Z,23.33
2019-04-16T14:31:48.934Z,19.87
2019-04-16T14:41:21.412Z,21.13
2019-04-16T15:18:00.868Z,18.30
2019-04-16T15:18:26.570Z,24.82
2019-04-16T15:21:03.774Z,20.62
2019-04-16T15:24:02.541Z,20.77
2019-04-16T15:27:06.137Z,20.68
2019-04-16T15:29:56.499Z,22.62
2019-04-16T15:33:07.112Z,19.87
2019-04-16T15:35:43.747Z,20.17
2019-04-16T15:38:26.674Z,23.92
2019-04-16T15:41:17.430Z,19.40
2019-04-16T15:44:08.986Z,23.35
2019-04-16T15:47:13.914Z,22.55
2019-04-16T15:54:25.703Z,22.13
2019-04-16T15:57:16.903Z,21.35
2019-04-16T16:00:04.757Z,21.93
2019-04-16T16:03:08.252Z,23.90
2019-04-16T16:05:50.931Z,26.53
2019-04-16T16:08:48.802Z,21.07
2019-04-16T16:11:44.447Z,22.67
2019-04-16T16:14:24.748Z,26.75
2019-04-16T16:17:15.412Z,23.50
2019-04-16T16:20:00.622Z,23.30
2019-04-16T16:26:28.197Z,22.20
2019-04-16T16:29:15.334Z,30.77
2019-04-16T16:31:53.234Z,21.37
2019-04-16T16:34:27.470Z,24.87
2019-04-16T16:37:46.814Z,19.50
2019-04-16T16:41:37.110Z,22.40
2019-04-16T16:49:29.479Z,24.93
2019-04-16T17:05:22.830Z,23.87
2019-04-16T17:07:58.927Z,22.27
2019-04-16T17:10:31.767Z,21.63
2019-04-16T17:13:06.672Z,25.33
2019-04-16T17:15:49.625Z,23.10
2019-04-16T17:19:19.862Z,25.20
2019-04-16T17:22:40.714Z,26.90
2019-04-16T17:50:42.482Z,21.97
2019-04-16T17:53:54.185Z,25.33
2019-04-16T18:05:16.069Z,23.80
2019-04-16T18:12:12.714Z,23.63
2019-04-16T18:15:29.850Z,24.73
2019-04-16T18:22:41.837Z,24.07
2019-04-16T18:26:39.586Z,24.77
2019-04-16T18:33:50.171Z,29.60
2019-04-16T18:36:30.784Z,27.30
2019-04-16T18:39:26.155Z,21.33
2019-04-16T18:42:26.670Z,24.00
2019-04-16T18:45:18.859Z,27.23
2019-04-16T18:48:08.738Z,22.00
2019-04-16T18:50:51.718Z,25.57
2019-04-16T18:53:27.331Z,28.20
2019-04-16T18:56:34.536Z,27.80
2019-04-16T18:59:48.617Z,27.90
2019-04-16T19:02:29.343Z,28.57
2019-04-16T19:05:07.386Z,24.90
2019-04-16T19:07:52.519Z,23.03
2019-04-16T19:34:47.550Z,24.50
2019-04-16T20:25:44.776Z,28.53
2019-04-16T20:28:32.292Z,24.97
2019-04-16T20:31:49.859Z,23.97
2019-04-16T20:35:01.325Z,27.17
2019-04-16T20:38:22.268Z,32.50
2019-04-16T20:41:10.467Z,29.40
2019-04-16T20:43:52.797Z,31.43
2019-04-16T20:46:31.063Z,27.07
2019-04-16T20:49:23.662Z,33.27
2019-04-16T20:52:02.927Z,24.03
2019-04-16T20:54:50.340Z,29.57
2019-04-16T20:57:26.806Z,26.87
2019-04-16T21:00:10.954Z,26.60
2019-04-16T21:02:48.243Z,32.07
2019-04-16T21:05:26.125Z,28.77
2019-04-16T21:08:07.715Z,28.53
2019-04-16T21:10:49.095Z,24.60
2019-04-16T21:13:25.481Z,24.30
2019-04-16T21:16:06.256Z,28.57
2019-04-16T21:18:37.476Z,29.50
2019-04-16T21:21:22.953Z,27.93
2019-04-16T21:24:17.156Z,26.10
2019-04-16T21:26:53.747Z,24.10
2019-04-16T21:29:36.646Z,24.53
2019-04-16T21:32:19.619Z,30.10
2019-04-16T21:34:58.692Z,28.37
2019-04-16T21:37:51.498Z,30.47
2019-04-16T21:40:30.543Z,32.23
2019-04-16T21:43:09.652Z,30.00
2019-04-16T21:45:53.592Z,30.47
2019-04-16T21:48:31.435Z,29.63
2019-04-16T21:51:22.357Z,35.53
2019-04-16T21:53:58.852Z,28.00
2019-04-16T21:56:39.771Z,26.70
2019-04-16T21:59:14.339Z,28.80
2019-04-16T22:01:51.838Z,28.33
2019-04-16T22:04:27.197Z,27.20
2019-04-16T22:07:07.158Z,33.57
2019-04-16T22:09:40.239Z,33.87
2019-04-16T22:12:15.496Z,31.00
2019-04-16T22:14:51.088Z,39.10
2019-04-16T22:17:20.838Z,24.83
2019-04-16T22:20:00.577Z,32.93
2019-04-16T22:22:28.011Z,31.07
2019-04-16T22:25:48.827Z,33.20
2019-04-16T22:28:24.844Z,30.77
2019-04-16T22:30:56.186Z,32.50
2019-04-16T22:33:29.941Z,31.80
2019-04-16T22:36:08.534Z,33.67
2019-04-16T22:38:48.173Z,36.70
2019-04-16T22:41:38.208Z,33.73
2019-04-16T22:44:37.430Z,33.33
2019-04-16T22:47:17.410Z,35.83
2019-04-16T22:49:51.626Z,34.17
2019-04-16T22:52:26.407Z,35.30
2019-04-16T22:54:59.864Z,32.43
2019-04-16T22:57:31.877Z,31.40
2019-04-16T23:00:11.749Z,36.60
2019-04-16T23:02:40.356Z,35.77
2019-04-16T23:05:13.717Z,33.70
2019-04-16T23:07:47.624Z,31.60
2019-04-16T23:10:21.163Z,32.17
2019-04-16T23:12:53.591Z,32.80
2019-04-16T23:15:24.553Z,35.07
2019-04-16T23:17:55.459Z,36.00
2019-04-16T23:20:33.555Z,36.57
2019-04-16T23:23:02.998Z,33.70
2019-04-16T23:25:38.021Z,32.47
2019-04-16T23:28:11.097Z,39.90
2019-04-16T23:30:43.574Z,36.63
2019-04-16T23:33:14.933Z,41.13
2019-04-16T23:35:46.222Z,35.97
2019-04-16T23:38:18.496Z,35.90
2019-04-16T23:40:49.269Z,36.27
2019-04-16T23:43:53.500Z,35.30
2019-04-16T23:46:50.603Z,37.80
2019-04-16T23:49:38.231Z,33.27
2019-04-16T23:52:18.144Z,39.13
2019-04-16T23:54:56.008Z,49.47
2019-04-16T23:57:38.802Z,34.47
